sensor_id;sensor_type;location;lat;lon;timestamp;P1;durP1;ratioP1;P2;durP2;ratioP2
78927;SDS011;68322;22.726;113.540;2023-04-03T00:01:17;33.67;;;15.38;;
78927;SDS011;68322;22.726;113.540;2023-04-03T00:03:43;35.45;;;15.25;;
78927;SDS011;68322;22.726;113.540;2023-04-03T00:06:11;31.95;;;15.65;;
78927;SDS011;68322;22.726;113.540;2023-04-03T00:08:38;28.92;;;13.90;;
78927;SDS011;68322;22.726;113.540;2023-04-03T00:11:05;38.28;;;16.20;;
78927;SDS011;68322;22.726;113.540;2023-04-03T00:13:32;32.70;;;15.68;;
78927;SDS011;68322;22.726;113.540;2023-04-03T00:15:59;34.08;;;15.98;;
78927;SDS011;68322;22.726;113.540;2023-04-03T00:18:27;30.35;;;14.73;;
78927;SDS011;68322;22.726;113.540;2023-04-03T00:20:53;34.63;;;16.58;;
78927;SDS011;68322;22.726;113.540;2023-04-03T00:23:20;30.15;;;14.43;;
78927;SDS011;68322;22.726;113.540;2023-04-03T00:28:15;34.38;;;15.88;;
78927;SDS011;68322;22.726;113.540;2023-04-03T00:30:41;29.00;;;14.38;;
78927;SDS011;68322;22.726;113.540;2023-04-03T00:33:10;33.42;;;17.08;;
78927;SDS011;68322;22.726;113.540;2023-04-03T00:35:38;32.13;;;14.30;;
78927;SDS011;68322;22.726;113.540;2023-04-03T00:38:04;41.25;;;15.23;;
78927;SDS011;68322;22.726;113.540;2023-04-03T00:40:35;26.52;;;14.52;;
78927;SDS011;68322;22.726;113.540;2023-04-03T00:43:05;29.02;;;14.75;;
78927;SDS011;68322;22.726;113.540;2023-04-03T00:45:37;27.75;;;15.10;;
78927;SDS011;68322;22.726;113.540;2023-04-03T00:48:11;28.48;;;14.35;;
78927;SDS011;68322;22.726;113.540;2023-04-03T00:50:40;32.38;;;16.23;;
78927;SDS011;68322;22.726;113.540;2023-04-03T00:53:09;33.63;;;17.30;;
78927;SDS011;68322;22.726;113.540;2023-04-03T00:55:38;40.30;;;16.77;;
78927;SDS011;68322;22.726;113.540;2023-04-03T00:58:05;38.78;;;17.67;;
78927;SDS011;68322;22.726;113.540;2023-04-03T01:00:32;36.22;;;18.13;;
78927;SDS011;68322;22.726;113.540;2023-04-03T01:03:00;31.70;;;16.02;;
78927;SDS011;68322;22.726;113.540;2023-04-03T01:05:27;37.63;;;17.05;;
78927;SDS011;68322;22.726;113.540;2023-04-03T01:07:53;30.80;;;15.95;;
78927;SDS011;68322;22.726;113.540;2023-04-03T01:10:20;40.08;;;17.48;;
78927;SDS011;68322;22.726;113.540;2023-04-03T01:12:49;41.33;;;17.33;;
78927;SDS011;68322;22.726;113.540;2023-04-03T01:15:17;37.08;;;15.43;;
78927;SDS011;68322;22.726;113.540;2023-04-03T01:25:38;32.97;;;15.80;;
78927;SDS011;68322;22.726;113.540;2023-04-03T01:28:06;36.42;;;16.35;;
78927;SDS011;68322;22.726;113.540;2023-04-03T01:30:34;33.38;;;16.13;;
78927;SDS011;68322;22.726;113.540;2023-04-03T01:33:04;39.75;;;15.35;;
78927;SDS011;68322;22.726;113.540;2023-04-03T01:35:31;36.58;;;16.60;;
78927;SDS011;68322;22.726;113.540;2023-04-03T01:37:57;29.40;;;16.73;;
78927;SDS011;68322;22.726;113.540;2023-04-03T01:40:24;29.92;;;14.85;;
78927;SDS011;68322;22.726;113.540;2023-04-03T01:42:51;34.28;;;15.13;;
78927;SDS011;68322;22.726;113.540;2023-04-03T01:45:18;27.05;;;13.07;;
78927;SDS011;68322;22.726;113.540;2023-04-03T01:47:45;29.92;;;13.57;;
78927;SDS011;68322;22.726;113.540;2023-04-03T01:50:11;32.05;;;15.45;;
78927;SDS011;68322;22.726;113.540;2023-04-03T01:52:41;27.58;;;15.27;;
78927;SDS011;68322;22.726;113.540;2023-04-03T01:55:07;30.67;;;14.10;;
78927;SDS011;68322;22.726;113.540;2023-04-03T01:57:35;34.20;;;14.15;;
78927;SDS011;68322;22.726;113.540;2023-04-03T02:00:02;27.95;;;13.57;;
78927;SDS011;68322;22.726;113.540;2023-04-03T02:02:29;29.10;;;13.63;;
78927;SDS011;68322;22.726;113.540;2023-04-03T02:04:58;24.50;;;13.32;;
78927;SDS011;68322;22.726;113.540;2023-04-03T02:07:25;27.38;;;13.05;;
78927;SDS011;68322;22.726;113.540;2023-04-03T02:09:52;26.73;;;12.73;;
78927;SDS011;68322;22.726;113.540;2023-04-03T02:12:19;26.73;;;13.93;;
78927;SDS011;68322;22.726;113.540;2023-04-03T02:14:46;31.45;;;14.27;;
78927;SDS011;68322;22.726;113.540;2023-04-03T02:17:12;29.60;;;14.57;;
78927;SDS011;68322;22.726;113.540;2023-04-03T02:19:40;26.77;;;11.60;;
78927;SDS011;68322;22.726;113.540;2023-04-03T02:22:07;21.90;;;13.68;;
78927;SDS011;68322;22.726;113.540;2023-04-03T02:24:33;24.65;;;13.55;;
78927;SDS011;68322;22.726;113.540;2023-04-03T02:27:00;36.85;;;14.48;;
78927;SDS011;68322;22.726;113.540;2023-04-03T02:29:27;30.45;;;15.38;;
78927;SDS011;68322;22.726;113.540;2023-04-03T02:31:53;25.55;;;12.98;;
78927;SDS011;68322;22.726;113.540;2023-04-03T02:34:20;34.65;;;13.65;;
78927;SDS011;68322;22.726;113.540;2023-04-03T02:36:47;28.02;;;13.52;;
78927;SDS011;68322;22.726;113.540;2023-04-03T02:39:14;25.35;;;12.35;;
78927;SDS011;68322;22.726;113.540;2023-04-03T02:41:41;30.58;;;13.48;;
78927;SDS011;68322;22.726;113.540;2023-04-03T02:44:08;27.35;;;13.55;;
78927;SDS011;68322;22.726;113.540;2023-04-03T02:46:35;22.55;;;12.98;;
78927;SDS011;68322;22.726;113.540;2023-04-03T02:49:02;20.70;;;12.48;;
78927;SDS011;68322;22.726;113.540;2023-04-03T02:51:29;23.80;;;12.63;;
78927;SDS011;68322;22.726;113.540;2023-04-03T02:53:56;23.67;;;13.90;;
78927;SDS011;68322;22.726;113.540;2023-04-03T02:56:23;26.42;;;13.73;;
78927;SDS011;68322;22.726;113.540;2023-04-03T02:58:50;21.45;;;12.93;;
78927;SDS011;68322;22.726;113.540;2023-04-03T03:01:18;32.95;;;15.50;;
78927;SDS011;68322;22.726;113.540;2023-04-03T03:03:44;25.23;;;13.85;;
78927;SDS011;68322;22.726;113.540;2023-04-03T03:06:12;25.30;;;12.82;;
78927;SDS011;68322;22.726;113.540;2023-04-03T03:08:40;26.13;;;14.77;;
78927;SDS011;68322;22.726;113.540;2023-04-03T03:11:07;25.20;;;11.90;;
78927;SDS011;68322;22.726;113.540;2023-04-03T03:13:34;27.08;;;13.73;;
78927;SDS011;68322;22.726;113.540;2023-04-03T03:16:01;33.22;;;14.55;;
78927;SDS011;68322;22.726;113.540;2023-04-03T03:18:28;28.85;;;14.07;;
78927;SDS011;68322;22.726;113.540;2023-04-03T03:20:56;24.50;;;12.40;;
78927;SDS011;68322;22.726;113.540;2023-04-03T03:23:24;27.63;;;14.82;;
78927;SDS011;68322;22.726;113.540;2023-04-03T03:25:55;28.33;;;14.57;;
78927;SDS011;68322;22.726;113.540;2023-04-03T03:28:22;31.60;;;15.05;;
78927;SDS011;68322;22.726;113.540;2023-04-03T03:30:48;29.80;;;15.00;;
78927;SDS011;68322;22.726;113.540;2023-04-03T03:33:16;32.22;;;13.88;;
78927;SDS011;68322;22.726;113.540;2023-04-03T03:35:43;29.25;;;14.75;;
78927;SDS011;68322;22.726;113.540;2023-04-03T03:38:10;28.83;;;14.43;;
78927;SDS011;68322;22.726;113.540;2023-04-03T03:40:37;23.67;;;13.55;;
78927;SDS011;68322;22.726;113.540;2023-04-03T03:43:03;27.30;;;13.65;;
78927;SDS011;68322;22.726;113.540;2023-04-03T03:45:30;28.17;;;12.73;;
78927;SDS011;68322;22.726;113.540;2023-04-03T03:47:57;21.42;;;12.57;;
78927;SDS011;68322;22.726;113.540;2023-04-03T03:50:23;24.00;;;14.52;;
78927;SDS011;68322;22.726;113.540;2023-04-03T03:52:50;29.08;;;13.25;;
78927;SDS011;68322;22.726;113.540;2023-04-03T03:55:17;29.75;;;12.57;;
78927;SDS011;68322;22.726;113.540;2023-04-03T03:57:44;30.48;;;14.13;;
78927;SDS011;68322;22.726;113.540;2023-04-03T04:00:11;30.13;;;14.68;;
78927;SDS011;68322;22.726;113.540;2023-04-03T04:02:37;30.38;;;14.98;;
78927;SDS011;68322;22.726;113.540;2023-04-03T04:05:04;31.15;;;14.40;;
78927;SDS011;68322;22.726;113.540;2023-04-03T04:07:31;27.55;;;15.13;;
78927;SDS011;68322;22.726;113.540;2023-04-03T04:12:26;29.20;;;15.05;;
78927;SDS011;68322;22.726;113.540;2023-04-03T04:14:53;29.92;;;16.63;;
78927;SDS011;68322;22.726;113.540;2023-04-03T04:17:19;32.63;;;15.70;;
78927;SDS011;68322;22.726;113.540;2023-04-03T04:19:46;31.30;;;15.57;;
78927;SDS011;68322;22.726;113.540;2023-04-03T04:22:13;30.02;;;16.17;;
78927;SDS011;68322;22.726;113.540;2023-04-03T04:24:40;30.88;;;14.95;;
78927;SDS011;68322;22.726;113.540;2023-04-03T04:27:06;26.63;;;13.60;;
78927;SDS011;68322;22.726;113.540;2023-04-03T04:29:35;36.97;;;16.13;;
78927;SDS011;68322;22.726;113.540;2023-04-03T04:32:03;26.15;;;16.05;;
78927;SDS011;68322;22.726;113.540;2023-04-03T04:34:30;30.27;;;16.38;;
78927;SDS011;68322;22.726;113.540;2023-04-03T04:36:56;26.05;;;14.90;;
78927;SDS011;68322;22.726;113.540;2023-04-03T04:39:23;30.67;;;13.75;;
78927;SDS011;68322;22.726;113.540;2023-04-03T04:41:50;31.85;;;16.20;;
78927;SDS011;68322;22.726;113.540;2023-04-03T04:44:17;30.08;;;15.23;;
78927;SDS011;68322;22.726;113.540;2023-04-03T04:46:45;29.35;;;15.40;;
78927;SDS011;68322;22.726;113.540;2023-04-03T04:49:12;28.30;;;16.05;;
78927;SDS011;68322;22.726;113.540;2023-04-03T04:51:38;24.50;;;14.23;;
78927;SDS011;68322;22.726;113.540;2023-04-03T04:54:05;29.70;;;15.43;;
78927;SDS011;68322;22.726;113.540;2023-04-03T04:56:32;26.35;;;14.52;;
78927;SDS011;68322;22.726;113.540;2023-04-03T04:58:58;26.10;;;15.05;;
78927;SDS011;68322;22.726;113.540;2023-04-03T05:01:25;22.42;;;13.07;;
78927;SDS011;68322;22.726;113.540;2023-04-03T05:03:52;22.60;;;13.63;;
78927;SDS011;68322;22.726;113.540;2023-04-03T05:06:19;24.67;;;13.05;;
78927;SDS011;68322;22.726;113.540;2023-04-03T05:08:46;24.80;;;14.93;;
78927;SDS011;68322;22.726;113.540;2023-04-03T05:11:13;25.73;;;12.30;;
78927;SDS011;68322;22.726;113.540;2023-04-03T05:13:40;23.27;;;13.35;;
78927;SDS011;68322;22.726;113.540;2023-04-03T05:16:07;26.95;;;15.90;;
78927;SDS011;68322;22.726;113.540;2023-04-03T05:18:35;29.85;;;15.38;;
78927;SDS011;68322;22.726;113.540;2023-04-03T05:21:03;29.55;;;16.05;;
78927;SDS011;68322;22.726;113.540;2023-04-03T05:23:30;28.65;;;15.05;;
78927;SDS011;68322;22.726;113.540;2023-04-03T05:26:00;28.55;;;14.77;;
78927;SDS011;68322;22.726;113.540;2023-04-03T05:28:27;30.25;;;13.18;;
78927;SDS011;68322;22.726;113.540;2023-04-03T05:30:56;25.73;;;14.95;;
78927;SDS011;68322;22.726;113.540;2023-04-03T05:33:23;27.77;;;15.50;;
78927;SDS011;68322;22.726;113.540;2023-04-03T05:35:51;25.45;;;14.23;;
78927;SDS011;68322;22.726;113.540;2023-04-03T05:38:19;24.45;;;12.43;;
78927;SDS011;68322;22.726;113.540;2023-04-03T05:40:46;22.83;;;14.52;;
78927;SDS011;68322;22.726;113.540;2023-04-03T05:43:13;27.60;;;14.85;;
78927;SDS011;68322;22.726;113.540;2023-04-03T05:45:40;26.67;;;15.75;;
78927;SDS011;68322;22.726;113.540;2023-04-03T05:48:07;25.50;;;14.68;;
78927;SDS011;68322;22.726;113.540;2023-04-03T05:50:34;25.77;;;12.68;;
78927;SDS011;68322;22.726;113.540;2023-04-03T05:53:01;29.63;;;14.02;;
78927;SDS011;68322;22.726;113.540;2023-04-03T05:55:28;24.27;;;12.73;;
78927;SDS011;68322;22.726;113.540;2023-04-03T05:57:55;25.13;;;14.35;;
78927;SDS011;68322;22.726;113.540;2023-04-03T06:00:21;25.70;;;14.50;;
78927;SDS011;68322;22.726;113.540;2023-04-03T06:02:48;30.80;;;15.55;;
78927;SDS011;68322;22.726;113.540;2023-04-03T06:05:15;28.35;;;15.15;;
78927;SDS011;68322;22.726;113.540;2023-04-03T06:07:42;28.30;;;14.40;;
78927;SDS011;68322;22.726;113.540;2023-04-03T06:10:11;28.08;;;15.45;;
78927;SDS011;68322;22.726;113.540;2023-04-03T06:12:38;30.52;;;14.57;;
78927;SDS011;68322;22.726;113.540;2023-04-03T06:15:05;22.42;;;13.50;;
78927;SDS011;68322;22.726;113.540;2023-04-03T06:17:33;30.50;;;14.98;;
78927;SDS011;68322;22.726;113.540;2023-04-03T06:20:03;23.63;;;15.00;;
78927;SDS011;68322;22.726;113.540;2023-04-03T06:22:29;28.48;;;15.68;;
78927;SDS011;68322;22.726;113.540;2023-04-03T06:24:56;27.95;;;15.98;;
78927;SDS011;68322;22.726;113.540;2023-04-03T06:27:23;27.80;;;14.30;;
78927;SDS011;68322;22.726;113.540;2023-04-03T06:29:50;24.05;;;13.80;;
78927;SDS011;68322;22.726;113.540;2023-04-03T06:32:17;33.20;;;14.70;;
78927;SDS011;68322;22.726;113.540;2023-04-03T06:34:43;23.35;;;13.13;;
78927;SDS011;68322;22.726;113.540;2023-04-03T06:37:18;24.75;;;14.32;;
78927;SDS011;68322;22.726;113.540;2023-04-03T06:39:46;28.67;;;13.85;;
78927;SDS011;68322;22.726;113.540;2023-04-03T06:42:13;23.35;;;14.23;;
78927;SDS011;68322;22.726;113.540;2023-04-03T06:44:42;21.42;;;13.88;;
78927;SDS011;68322;22.726;113.540;2023-04-03T06:47:15;26.08;;;12.73;;
78927;SDS011;68322;22.726;113.540;2023-04-03T06:49:43;23.85;;;13.55;;
78927;SDS011;68322;22.726;113.540;2023-04-03T06:52:10;22.98;;;14.05;;
78927;SDS011;68322;22.726;113.540;2023-04-03T06:54:40;29.60;;;13.45;;
78927;SDS011;68322;22.726;113.540;2023-04-03T06:57:08;20.10;;;13.30;;
78927;SDS011;68322;22.726;113.540;2023-04-03T06:59:35;24.48;;;13.95;;
78927;SDS011;68322;22.726;113.540;2023-04-03T07:02:02;27.27;;;15.60;;
78927;SDS011;68322;22.726;113.540;2023-04-03T07:04:28;27.05;;;15.38;;
78927;SDS011;68322;22.726;113.540;2023-04-03T07:06:55;31.42;;;15.40;;
78927;SDS011;68322;22.726;113.540;2023-04-03T07:09:22;27.00;;;14.98;;
78927;SDS011;68322;22.726;113.540;2023-04-03T07:11:49;32.05;;;15.82;;
78927;SDS011;68322;22.726;113.540;2023-04-03T07:14:16;27.17;;;14.25;;
78927;SDS011;68322;22.726;113.540;2023-04-03T07:16:43;26.65;;;15.23;;
78927;SDS011;68322;22.726;113.540;2023-04-03T07:19:10;32.38;;;16.70;;
78927;SDS011;68322;22.726;113.540;2023-04-03T07:21:37;28.73;;;14.45;;
78927;SDS011;68322;22.726;113.540;2023-04-03T07:24:04;26.23;;;14.00;;
78927;SDS011;68322;22.726;113.540;2023-04-03T07:26:31;26.65;;;15.05;;
78927;SDS011;68322;22.726;113.540;2023-04-03T07:28:58;26.30;;;15.07;;
78927;SDS011;68322;22.726;113.540;2023-04-03T07:31:25;25.38;;;13.35;;
78927;SDS011;68322;22.726;113.540;2023-04-03T07:33:51;26.98;;;15.48;;
78927;SDS011;68322;22.726;113.540;2023-04-03T07:36:19;23.92;;;14.02;;
78927;SDS011;68322;22.726;113.540;2023-04-03T07:38:46;36.10;;;16.50;;
78927;SDS011;68322;22.726;113.540;2023-04-03T07:41:14;33.47;;;16.42;;
78927;SDS011;68322;22.726;113.540;2023-04-03T07:43:40;26.85;;;16.02;;
78927;SDS011;68322;22.726;113.540;2023-04-03T07:46:07;31.80;;;16.08;;
78927;SDS011;68322;22.726;113.540;2023-04-03T07:51:02;35.05;;;16.00;;
78927;SDS011;68322;22.726;113.540;2023-04-03T07:53:33;26.40;;;14.93;;
78927;SDS011;68322;22.726;113.540;2023-04-03T07:56:00;29.63;;;15.20;;
78927;SDS011;68322;22.726;113.540;2023-04-03T07:58:28;27.13;;;14.50;;
78927;SDS011;68322;22.726;113.540;2023-04-03T08:00:55;23.27;;;14.77;;
78927;SDS011;68322;22.726;113.540;2023-04-03T08:03:22;33.85;;;15.93;;
78927;SDS011;68322;22.726;113.540;2023-04-03T08:05:49;24.35;;;14.50;;
78927;SDS011;68322;22.726;113.540;2023-04-03T08:08:19;22.88;;;13.52;;
78927;SDS011;68322;22.726;113.540;2023-04-03T08:10:50;26.25;;;13.40;;
78927;SDS011;68322;22.726;113.540;2023-04-03T08:13:17;22.67;;;13.23;;
78927;SDS011;68322;22.726;113.540;2023-04-03T08:15:44;33.40;;;14.82;;
78927;SDS011;68322;22.726;113.540;2023-04-03T08:18:13;27.40;;;13.82;;
78927;SDS011;68322;22.726;113.540;2023-04-03T08:20:40;24.02;;;13.82;;
78927;SDS011;68322;22.726;113.540;2023-04-03T08:23:07;24.75;;;13.25;;
78927;SDS011;68322;22.726;113.540;2023-04-03T08:25:40;26.00;;;13.57;;
78927;SDS011;68322;22.726;113.540;2023-04-03T08:28:08;31.80;;;15.23;;
78927;SDS011;68322;22.726;113.540;2023-04-03T08:30:40;30.38;;;16.95;;
78927;SDS011;68322;22.726;113.540;2023-04-03T08:33:08;30.25;;;14.57;;
78927;SDS011;68322;22.726;113.540;2023-04-03T08:35:40;26.77;;;15.27;;
78927;SDS011;68322;22.726;113.540;2023-04-03T08:38:07;30.92;;;14.93;;
78927;SDS011;68322;22.726;113.540;2023-04-03T08:40:34;31.02;;;15.77;;
78927;SDS011;68322;22.726;113.540;2023-04-03T08:48:17;27.15;;;14.27;;
78927;SDS011;68322;22.726;113.540;2023-04-03T08:50:47;28.42;;;16.20;;
78927;SDS011;68322;22.726;113.540;2023-04-03T08:53:19;26.05;;;14.45;;
78927;SDS011;68322;22.726;113.540;2023-04-03T08:55:47;24.55;;;14.48;;
78927;SDS011;68322;22.726;113.540;2023-04-03T09:00:55;26.90;;;14.07;;
78927;SDS011;68322;22.726;113.540;2023-04-03T09:03:24;26.25;;;14.07;;
78927;SDS011;68322;22.726;113.540;2023-04-03T09:06:00;22.38;;;13.23;;
78927;SDS011;68322;22.726;113.540;2023-04-03T09:09:11;24.00;;;13.13;;
78927;SDS011;68322;22.726;113.540;2023-04-03T09:11:22;20.92;;;11.50;;
78927;SDS011;68322;22.726;113.540;2023-04-03T09:22:21;30.88;;;15.02;;
78927;SDS011;68322;22.726;113.540;2023-04-03T09:24:47;31.20;;;14.85;;
78927;SDS011;68322;22.726;113.540;2023-04-03T09:27:15;24.23;;;14.05;;
78927;SDS011;68322;22.726;113.540;2023-04-03T09:29:43;24.77;;;14.50;;
78927;SDS011;68322;22.726;113.540;2023-04-03T09:32:32;24.30;;;14.35;;
78927;SDS011;68322;22.726;113.540;2023-04-03T09:35:02;27.83;;;14.80;;
78927;SDS011;68322;22.726;113.540;2023-04-03T09:37:48;29.55;;;15.35;;
78927;SDS011;68322;22.726;113.540;2023-04-03T09:43:00;28.80;;;15.27;;
78927;SDS011;68322;22.726;113.540;2023-04-03T09:45:28;32.10;;;16.25;;
78927;SDS011;68322;22.726;113.540;2023-04-03T09:48:38;29.48;;;15.07;;
78927;SDS011;68322;22.726;113.540;2023-04-03T09:53:36;33.42;;;15.43;;
78927;SDS011;68322;22.726;113.540;2023-04-03T09:56:05;27.40;;;15.15;;
78927;SDS011;68322;22.726;113.540;2023-04-03T09:58:51;26.10;;;13.05;;
78927;SDS011;68322;22.726;113.540;2023-04-03T10:01:31;25.48;;;14.38;;
78927;SDS011;68322;22.726;113.540;2023-04-03T10:04:06;28.02;;;13.70;;
78927;SDS011;68322;22.726;113.540;2023-04-03T10:06:37;22.52;;;12.57;;
78927;SDS011;68322;22.726;113.540;2023-04-03T10:09:13;29.05;;;13.55;;
78927;SDS011;68322;22.726;113.540;2023-04-03T10:14:23;26.10;;;13.35;;
78927;SDS011;68322;22.726;113.540;2023-04-03T10:17:02;26.13;;;13.13;;
78927;SDS011;68322;22.726;113.540;2023-04-03T10:19:47;27.65;;;14.23;;
78927;SDS011;68322;22.726;113.540;2023-04-03T10:22:19;29.77;;;13.40;;
78927;SDS011;68322;22.726;113.540;2023-04-03T10:30:04;22.73;;;13.52;;
78927;SDS011;68322;22.726;113.540;2023-04-03T10:32:45;25.50;;;14.15;;
78927;SDS011;68322;22.726;113.540;2023-04-03T10:35:21;24.40;;;13.13;;
78927;SDS011;68322;22.726;113.540;2023-04-03T10:38:14;25.48;;;11.68;;
78927;SDS011;68322;22.726;113.540;2023-04-03T10:40:51;29.70;;;14.88;;
78927;SDS011;68322;22.726;113.540;2023-04-03T10:43:25;27.73;;;12.93;;
78927;SDS011;68322;22.726;113.540;2023-04-03T10:46:10;25.98;;;12.85;;
78927;SDS011;68322;22.726;113.540;2023-04-03T11:01:47;24.17;;;13.55;;
78927;SDS011;68322;22.726;113.540;2023-04-03T11:04:14;25.70;;;13.85;;
78927;SDS011;68322;22.726;113.540;2023-04-03T11:07:01;23.83;;;13.80;;
78927;SDS011;68322;22.726;113.540;2023-04-03T11:09:35;24.17;;;13.30;;
78927;SDS011;68322;22.726;113.540;2023-04-03T11:14:47;22.38;;;12.20;;
78927;SDS011;68322;22.726;113.540;2023-04-03T11:22:32;21.58;;;12.50;;
78927;SDS011;68322;22.726;113.540;2023-04-03T11:27:38;22.55;;;11.73;;
78927;SDS011;68322;22.726;113.540;2023-04-03T11:30:08;23.05;;;13.38;;
78927;SDS011;68322;22.726;113.540;2023-04-03T11:35:09;23.90;;;13.55;;
78927;SDS011;68322;22.726;113.540;2023-04-03T11:37:50;25.30;;;12.57;;
78927;SDS011;68322;22.726;113.540;2023-04-03T11:40:23;32.17;;;14.32;;
78927;SDS011;68322;22.726;113.540;2023-04-03T11:43:37;29.58;;;13.40;;
78927;SDS011;68322;22.726;113.540;2023-04-03T11:50:55;31.83;;;15.50;;
78927;SDS011;68322;22.726;113.540;2023-04-03T11:53:26;27.05;;;13.52;;
78927;SDS011;68322;22.726;113.540;2023-04-03T11:55:55;30.50;;;14.25;;
78927;SDS011;68322;22.726;113.540;2023-04-03T11:58:23;24.35;;;14.48;;
78927;SDS011;68322;22.726;113.540;2023-04-03T12:00:51;33.75;;;13.30;;
78927;SDS011;68322;22.726;113.540;2023-04-03T12:08:29;29.55;;;12.98;;
78927;SDS011;68322;22.726;113.540;2023-04-03T12:13:42;29.25;;;15.05;;
78927;SDS011;68322;22.726;113.540;2023-04-03T12:16:54;30.02;;;14.52;;
78927;SDS011;68322;22.726;113.540;2023-04-03T12:19:41;34.22;;;16.02;;
78927;SDS011;68322;22.726;113.540;2023-04-03T12:24:30;28.48;;;14.02;;
78927;SDS011;68322;22.726;113.540;2023-04-03T12:29:27;27.90;;;15.48;;
78927;SDS011;68322;22.726;113.540;2023-04-03T12:37:09;37.35;;;15.88;;
78927;SDS011;68322;22.726;113.540;2023-04-03T12:42:15;39.53;;;16.75;;
78927;SDS011;68322;22.726;113.540;2023-04-03T12:44:46;33.00;;;17.05;;
78927;SDS011;68322;22.726;113.540;2023-04-03T12:49:47;33.85;;;16.80;;
78927;SDS011;68322;22.726;113.540;2023-04-03T12:52:22;29.63;;;17.83;;
78927;SDS011;68322;22.726;113.540;2023-04-03T12:54:53;33.30;;;15.85;;
78927;SDS011;68322;22.726;113.540;2023-04-03T12:57:24;36.63;;;16.88;;
78927;SDS011;68322;22.726;113.540;2023-04-03T12:59:54;38.00;;;17.73;;
78927;SDS011;68322;22.726;113.540;2023-04-03T13:04:51;34.63;;;17.45;;
78927;SDS011;68322;22.726;113.540;2023-04-03T13:07:29;34.03;;;19.02;;
78927;SDS011;68322;22.726;113.540;2023-04-03T13:09:59;28.17;;;15.07;;
78927;SDS011;68322;22.726;113.540;2023-04-03T13:12:26;33.15;;;18.08;;
78927;SDS011;68322;22.726;113.540;2023-04-03T13:14:57;32.65;;;15.65;;
78927;SDS011;68322;22.726;113.540;2023-04-03T13:17:26;38.20;;;18.77;;
78927;SDS011;68322;22.726;113.540;2023-04-03T13:19:53;40.55;;;17.80;;
78927;SDS011;68322;22.726;113.540;2023-04-03T13:22:36;38.67;;;17.85;;
78927;SDS011;68322;22.726;113.540;2023-04-03T13:25:09;34.30;;;16.58;;
78927;SDS011;68322;22.726;113.540;2023-04-03T13:27:37;37.33;;;17.88;;
78927;SDS011;68322;22.726;113.540;2023-04-03T13:30:29;33.70;;;15.85;;
78927;SDS011;68322;22.726;113.540;2023-04-03T13:32:56;31.45;;;16.15;;
78927;SDS011;68322;22.726;113.540;2023-04-03T13:35:28;31.55;;;16.48;;
78927;SDS011;68322;22.726;113.540;2023-04-03T13:37:58;34.83;;;16.80;;
78927;SDS011;68322;22.726;113.540;2023-04-03T13:40:27;36.67;;;17.05;;
78927;SDS011;68322;22.726;113.540;2023-04-03T13:43:05;36.05;;;17.35;;
78927;SDS011;68322;22.726;113.540;2023-04-03T13:45:33;33.08;;;16.80;;
78927;SDS011;68322;22.726;113.540;2023-04-03T13:48:18;38.30;;;16.83;;
78927;SDS011;68322;22.726;113.540;2023-04-03T13:50:55;29.38;;;16.20;;
78927;SDS011;68322;22.726;113.540;2023-04-03T13:53:22;50.47;;;16.15;;
78927;SDS011;68322;22.726;113.540;2023-04-03T13:56:00;40.58;;;16.75;;
78927;SDS011;68322;22.726;113.540;2023-04-03T13:58:33;31.25;;;17.05;;
78927;SDS011;68322;22.726;113.540;2023-04-03T14:01:07;34.03;;;16.33;;
78927;SDS011;68322;22.726;113.540;2023-04-03T14:03:44;34.95;;;16.85;;
78927;SDS011;68322;22.726;113.540;2023-04-03T14:06:13;27.90;;;15.68;;
78927;SDS011;68322;22.726;113.540;2023-04-03T14:08:40;31.30;;;17.15;;
78927;SDS011;68322;22.726;113.540;2023-04-03T14:11:19;31.95;;;16.77;;
78927;SDS011;68322;22.726;113.540;2023-04-03T14:16:33;32.72;;;17.30;;
78927;SDS011;68322;22.726;113.540;2023-04-03T14:19:05;30.70;;;16.40;;
78927;SDS011;68322;22.726;113.540;2023-04-03T14:21:31;30.27;;;15.98;;
78927;SDS011;68322;22.726;113.540;2023-04-03T14:23:58;28.77;;;15.65;;
78927;SDS011;68322;22.726;113.540;2023-04-03T14:26:25;32.95;;;16.17;;
78927;SDS011;68322;22.726;113.540;2023-04-03T14:28:55;33.28;;;16.00;;
78927;SDS011;68322;22.726;113.540;2023-04-03T14:31:22;35.78;;;16.33;;
78927;SDS011;68322;22.726;113.540;2023-04-03T14:33:51;29.77;;;15.77;;
78927;SDS011;68322;22.726;113.540;2023-04-03T14:36:19;34.67;;;17.00;;
78927;SDS011;68322;22.726;113.540;2023-04-03T14:38:47;24.23;;;15.82;;
78927;SDS011;68322;22.726;113.540;2023-04-03T14:41:17;29.92;;;14.77;;
78927;SDS011;68322;22.726;113.540;2023-04-03T14:43:44;26.73;;;15.63;;
78927;SDS011;68322;22.726;113.540;2023-04-03T14:46:13;30.42;;;14.70;;
78927;SDS011;68322;22.726;113.540;2023-04-03T14:48:40;35.25;;;15.95;;
78927;SDS011;68322;22.726;113.540;2023-04-03T14:51:09;30.65;;;15.57;;
78927;SDS011;68322;22.726;113.540;2023-04-03T14:53:41;33.95;;;14.82;;
78927;SDS011;68322;22.726;113.540;2023-04-03T14:56:13;31.00;;;15.45;;
78927;SDS011;68322;22.726;113.540;2023-04-03T14:58:40;25.83;;;15.20;;
78927;SDS011;68322;22.726;113.540;2023-04-03T15:01:09;35.20;;;15.88;;
78927;SDS011;68322;22.726;113.540;2023-04-03T15:03:36;32.47;;;13.70;;
78927;SDS011;68322;22.726;113.540;2023-04-03T15:06:02;24.50;;;15.23;;
78927;SDS011;68322;22.726;113.540;2023-04-03T15:08:30;31.63;;;14.65;;
78927;SDS011;68322;22.726;113.540;2023-04-03T15:10:57;27.08;;;14.93;;
78927;SDS011;68322;22.726;113.540;2023-04-03T15:13:24;27.83;;;15.75;;
78927;SDS011;68322;22.726;113.540;2023-04-03T15:15:51;28.75;;;15.35;;
78927;SDS011;68322;22.726;113.540;2023-04-03T15:18:23;29.88;;;13.07;;
78927;SDS011;68322;22.726;113.540;2023-04-03T15:20:59;40.72;;;14.82;;
78927;SDS011;68322;22.726;113.540;2023-04-03T15:23:26;24.17;;;13.15;;
78927;SDS011;68322;22.726;113.540;2023-04-03T15:25:55;20.55;;;11.90;;
78927;SDS011;68322;22.726;113.540;2023-04-03T15:30:57;20.10;;;11.77;;
78927;SDS011;68322;22.726;113.540;2023-04-03T15:33:24;22.33;;;12.85;;
78927;SDS011;68322;22.726;113.540;2023-04-03T15:35:54;20.75;;;11.20;;
78927;SDS011;68322;22.726;113.540;2023-04-03T15:38:21;22.33;;;12.63;;
78927;SDS011;68322;22.726;113.540;2023-04-03T15:40:48;21.95;;;12.10;;
78927;SDS011;68322;22.726;113.540;2023-04-03T15:43:15;24.38;;;12.15;;
78927;SDS011;68322;22.726;113.540;2023-04-03T15:45:44;19.80;;;11.68;;
78927;SDS011;68322;22.726;113.540;2023-04-03T15:48:11;22.35;;;11.40;;
78927;SDS011;68322;22.726;113.540;2023-04-03T15:50:38;18.27;;;10.77;;
78927;SDS011;68322;22.726;113.540;2023-04-03T15:53:09;20.50;;;10.43;;
78927;SDS011;68322;22.726;113.540;2023-04-03T15:55:38;19.38;;;10.40;;